Time;durP1;ratioP1;P1;durP2;ratioP2;P2;SDS_P1;SDS_P2;PMS_P1;PMS_P2;Temp;Humidity;BMP_temperature;BMP_pressure;BME280_temperature;BME280_humidity;BME280_pressure;Samples;Min_cycle;Max_cycle;Signal;HPM_P1;HPM_P2
2021/05/19 00:01:27;;;;;;;0.82;0.82;;;23.70;40.60;;;;;;5071722;28;20212;-43
2021/05/19 00:03:53;;;;;;;0.70;0.70;;;23.70;40.60;;;;;;5078376;28;20252;-54
2021/05/19 00:06:19;;;;;;;1.10;0.80;;;23.70;40.80;;;;;;5089864;28;20467;-44
2021/05/19 00:08:45;;;;;;;1.27;0.98;;;23.70;40.80;;;;;;5075271;28;20225;-51
2021/05/19 00:11:11;;;;;;;0.90;0.90;;;23.70;40.70;;;;;;5070782;28;20201;-50
2021/05/19 00:13:37;;;;;;;0.88;0.88;;;23.70;40.90;;;;;;5069999;28;20197;-53
2021/05/19 00:16:03;;;;;;;0.80;0.80;;;23.70;40.90;;;;;;5086828;28;20261;-53
2021/05/19 00:18:29;;;;;;;0.80;0.80;;;23.70;40.90;;;;;;5077365;28;20225;-49
2021/05/19 00:20:55;;;;;;;1.08;0.80;;;23.70;40.80;;;;;;5069326;28;20266;-53
2021/05/19 00:23:21;;;;;;;1.60;1.00;;;23.70;40.90;;;;;;5072546;28;20237;-46
2021/05/19 00:25:47;;;;;;;1.02;1.00;;;23.70;40.90;;;;;;5070527;28;20193;-49
2021/05/19 00:28:13;;;;;;;0.80;0.80;;;23.70;41.00;;;;;;5068612;28;20221;-49
2021/05/19 00:30:39;;;;;;;1.38;0.82;;;23.70;41.00;;;;;;5071113;28;20202;-51
2021/05/19 00:33:05;;;;;;;1.05;0.90;;;23.70;40.90;;;;;;5050329;28;20292;-54
2021/05/19 00:35:31;;;;;;;1.60;1.00;;;23.70;40.90;;;;;;5060175;28;20204;-48
2021/05/19 00:37:57;;;;;;;0.70;0.70;;;23.70;40.90;;;;;;5070492;28;20232;-47
2021/05/19 00:40:23;;;;;;;0.75;0.75;;;23.70;40.90;;;;;;5068650;28;20205;-50
2021/05/19 00:42:51;;;;;;;0.90;0.90;;;23.70;40.90;;;;;;5069801;28;20265;-49
2021/05/19 00:45:17;;;;;;;0.77;0.77;;;23.70;40.90;;;;;;5068580;28;20208;-45
2021/05/19 00:47:43;;;;;;;0.98;0.90;;;23.70;40.90;;;;;;5070439;28;20221;-52
2021/05/19 00:50:09;;;;;;;1.20;0.80;;;23.70;40.80;;;;;;5068117;28;20219;-49
2021/05/19 00:52:35;;;;;;;1.15;0.75;;;23.70;40.90;;;;;;5068928;28;20197;-50
2021/05/19 00:55:01;;;;;;;0.70;0.70;;;23.70;40.70;;;;;;5070094;28;20246;-53
2021/05/19 00:57:27;;;;;;;1.08;1.00;;;23.70;40.90;;;;;;5059268;28;20918;-46
2021/05/19 00:59:53;;;;;;;0.90;0.90;;;23.70;40.70;;;;;;5053508;28;20237;-51
2021/05/19 01:02:19;;;;;;;0.95;0.80;;;23.70;40.80;;;;;;5067792;28;20570;-52
2021/05/19 01:04:45;;;;;;;0.80;0.80;;;23.70;40.90;;;;;;5069129;28;20201;-42
2021/05/19 01:07:20;;;;;;;0.88;0.80;;;23.70;40.80;;;;;;5066799;28;20228;-50
2021/05/19 01:09:45;;;;;;;0.80;0.80;;;23.70;40.70;;;;;;5069290;28;20216;-43
2021/05/19 01:12:11;;;;;;;1.25;0.80;;;23.70;40.80;;;;;;5067149;28;20544;-48
2021/05/19 01:14:37;;;;;;;0.80;0.77;;;23.70;40.80;;;;;;5066741;28;20304;-51
2021/05/19 01:17:03;;;;;;;0.70;0.70;;;23.70;40.80;;;;;;5069575;28;20254;-52
2021/05/19 01:19:29;;;;;;;0.70;0.70;;;23.70;40.90;;;;;;5069534;28;20278;-53
2021/05/19 01:21:55;;;;;;;0.80;0.80;;;23.70;40.90;;;;;;5068130;28;20209;-47
2021/05/19 01:24:21;;;;;;;1.70;1.23;;;23.70;40.90;;;;;;5070071;28;20590;-46
2021/05/19 01:26:47;;;;;;;1.15;0.80;;;23.70;40.70;;;;;;5068978;28;20197;-48
2021/05/19 01:29:13;;;;;;;2.03;0.90;;;23.70;40.80;;;;;;5069865;28;20254;-43
2021/05/19 01:31:39;;;;;;;1.08;0.73;;;23.70;41.00;;;;;;5069404;28;20201;-42
2021/05/19 01:34:05;;;;;;;0.70;0.70;;;23.70;40.90;;;;;;5085429;28;20324;-43
2021/05/19 01:36:31;;;;;;;0.85;0.70;;;23.70;40.90;;;;;;5072407;28;20227;-43
2021/05/19 01:38:57;;;;;;;1.13;0.85;;;23.70;40.80;;;;;;5077003;28;20232;-42
2021/05/19 01:41:23;;;;;;;1.33;0.98;;;23.70;40.90;;;;;;5073446;28;20205;-43
2021/05/19 01:43:49;;;;;;;1.02;1.02;;;23.70;40.80;;;;;;5070107;28;20236;-42
2021/05/19 01:46:16;;;;;;;1.02;0.90;;;23.70;40.80;;;;;;5078909;28;20200;-45
2021/05/19 01:48:42;;;;;;;1.42;0.93;;;23.70;40.90;;;;;;5070644;28;20226;-43
2021/05/19 01:51:08;;;;;;;2.25;1.30;;;23.70;40.80;;;;;;5069592;28;20224;-50
2021/05/19 01:53:34;;;;;;;0.93;0.90;;;23.70;40.90;;;;;;5068258;28;20299;-47
2021/05/19 01:56:00;;;;;;;0.98;0.98;;;23.70;41.00;;;;;;5069694;28;20201;-49
2021/05/19 01:58:26;;;;;;;1.17;0.95;;;23.60;40.80;;;;;;5068772;28;20240;-48
2021/05/19 02:00:52;;;;;;;1.00;1.00;;;23.70;40.90;;;;;;5068846;28;20388;-48
2021/05/19 02:03:18;;;;;;;0.90;0.88;;;23.60;40.90;;;;;;5067657;28;20300;-49
2021/05/19 02:05:44;;;;;;;0.98;0.88;;;23.60;40.90;;;;;;5069006;28;20244;-49
2021/05/19 02:08:10;;;;;;;1.30;0.80;;;23.60;40.80;;;;;;5068373;28;20590;-45
2021/05/19 02:10:36;;;;;;;1.05;0.80;;;23.70;40.90;;;;;;5070166;28;20661;-50
2021/05/19 02:13:02;;;;;;;1.30;0.90;;;23.60;40.80;;;;;;5072082;28;20235;-45
2021/05/19 02:15:28;;;;;;;0.80;0.80;;;23.60;41.00;;;;;;5072330;28;20488;-55
2021/05/19 02:17:54;;;;;;;2.58;1.45;;;23.70;41.00;;;;;;5073221;28;20853;-44
2021/05/19 02:20:20;;;;;;;1.23;0.80;;;23.60;41.00;;;;;;5071655;28;20205;-54
2021/05/19 02:22:46;;;;;;;1.60;0.88;;;23.60;40.80;;;;;;5072158;28;20219;-43
2021/05/19 02:25:13;;;;;;;0.80;0.80;;;23.60;40.90;;;;;;5072679;28;20274;-50
2021/05/19 02:27:39;;;;;;;0.90;0.90;;;23.60;40.90;;;;;;5071791;28;20424;-44
2021/05/19 02:30:05;;;;;;;0.75;0.75;;;23.60;41.00;;;;;;5071916;28;20208;-43
2021/05/19 02:32:31;;;;;;;0.90;0.90;;;23.60;40.90;;;;;;5078802;28;20188;-47
2021/05/19 02:34:57;;;;;;;0.80;0.80;;;23.60;41.00;;;;;;5073904;28;20822;-45
2021/05/19 02:37:23;;;;;;;0.70;0.70;;;23.60;40.80;;;;;;5087683;28;20276;-46
2021/05/19 02:39:48;;;;;;;0.90;0.90;;;23.60;40.80;;;;;;5071936;28;20361;-51
2021/05/19 02:42:14;;;;;;;0.80;0.80;;;23.60;41.60;;;;;;5073163;28;20640;-43
2021/05/19 02:44:40;;;;;;;0.88;0.80;;;23.60;40.90;;;;;;5077454;28;20220;-43
2021/05/19 02:47:06;;;;;;;0.70;0.70;;;23.60;41.00;;;;;;5090816;28;20216;-46
2021/05/19 02:49:32;;;;;;;0.90;0.90;;;23.60;41.00;;;;;;5079991;28;20212;-47
2021/05/19 02:51:58;;;;;;;0.98;0.80;;;23.70;41.00;;;;;;5077299;28;20242;-46
2021/05/19 02:54:24;;;;;;;0.90;0.90;;;23.60;40.90;;;;;;5081287;28;20215;-44
2021/05/19 02:56:50;;;;;;;0.80;0.80;;;23.70;41.00;;;;;;5083315;28;20233;-45
2021/05/19 02:59:16;;;;;;;1.02;0.90;;;23.60;40.90;;;;;;5066137;28;20571;-47
2021/05/19 03:01:42;;;;;;;1.33;0.80;;;23.60;40.90;;;;;;5070681;28;20219;-47
2021/05/19 03:04:08;;;;;;;1.65;0.77;;;23.60;40.80;;;;;;5069508;28;20204;-46
2021/05/19 03:06:34;;;;;;;1.00;0.90;;;23.70;40.90;;;;;;5070251;28;20665;-47
2021/05/19 03:09:00;;;;;;;0.82;0.80;;;23.60;40.70;;;;;;5074506;28;20193;-48
2021/05/19 03:11:26;;;;;;;0.80;0.80;;;23.70;40.90;;;;;;5087616;28;20197;-51
2021/05/19 03:13:52;;;;;;;0.82;0.80;;;23.60;40.70;;;;;;5071509;28;20204;-51
2021/05/19 03:16:18;;;;;;;1.00;1.00;;;23.60;40.90;;;;;;5074988;28;20209;-46
2021/05/19 03:18:44;;;;;;;1.02;0.93;;;23.60;40.90;;;;;;5079821;28;20637;-56
2021/05/19 03:21:10;;;;;;;0.70;0.70;;;23.60;40.90;;;;;;5071063;28;20205;-52
2021/05/19 03:23:36;;;;;;;0.80;0.80;;;23.60;40.80;;;;;;5082825;28;20215;-51
2021/05/19 03:26:02;;;;;;;0.98;0.98;;;23.60;40.80;;;;;;5081222;28;20338;-49
2021/05/19 03:28:28;;;;;;;0.63;0.63;;;23.60;40.90;;;;;;5086241;28;20700;-54
2021/05/19 03:30:54;;;;;;;0.70;0.70;;;23.60;41.00;;;;;;5071746;28;20258;-42
2021/05/19 03:33:20;;;;;;;0.60;0.60;;;23.60;40.90;;;;;;5074335;28;20210;-48
2021/05/19 03:35:46;;;;;;;0.70;0.70;;;23.60;40.90;;;;;;5073894;28;20723;-46
2021/05/19 03:38:12;;;;;;;1.30;0.70;;;23.60;40.80;;;;;;5071749;28;20297;-52
2021/05/19 03:40:38;;;;;;;0.70;0.70;;;23.60;41.00;;;;;;5071997;28;20208;-48
2021/05/19 03:43:04;;;;;;;0.80;0.80;;;23.60;41.00;;;;;;5070379;28;20285;-44
2021/05/19 03:45:30;;;;;;;0.70;0.70;;;23.60;40.80;;;;;;5070450;28;20207;-51
2021/05/19 03:47:56;;;;;;;0.70;0.70;;;23.60;40.90;;;;;;5071116;28;20221;-47
2021/05/19 03:50:24;;;;;;;0.85;0.85;;;23.60;41.00;;;;;;5069633;28;20205;-49
2021/05/19 03:52:50;;;;;;;0.70;0.70;;;23.60;41.00;;;;;;5070528;28;20212;-48
2021/05/19 03:55:16;;;;;;;0.70;0.70;;;23.60;41.00;;;;;;5069285;28;20201;-47
2021/05/19 03:57:42;;;;;;;0.70;0.70;;;23.60;40.90;;;;;;5060862;28;20306;-53
2021/05/19 04:00:08;;;;;;;0.70;0.70;;;23.60;40.90;;;;;;5064993;28;20286;-53
2021/05/19 04:02:34;;;;;;;0.90;0.90;;;23.60;40.90;;;;;;5070382;28;20551;-48
2021/05/19 04:05:00;;;;;;;0.70;0.70;;;23.60;41.00;;;;;;5069269;28;20205;-46
2021/05/19 04:07:26;;;;;;;0.80;0.80;;;23.60;40.90;;;;;;5069220;28;20240;-53
2021/05/19 04:09:52;;;;;;;0.80;0.80;;;23.60;41.00;;;;;;5069814;28;20665;-43
2021/05/19 04:12:18;;;;;;;1.13;1.02;;;23.60;40.90;;;;;;5071027;28;20193;-48
2021/05/19 04:14:44;;;;;;;0.68;0.68;;;23.60;41.00;;;;;;5062779;28;20201;-50
2021/05/19 04:17:10;;;;;;;0.70;0.70;;;23.60;41.00;;;;;;5070928;28;20307;-42
2021/05/19 04:19:36;;;;;;;0.93;0.80;;;23.60;40.90;;;;;;5069721;28;20655;-47
2021/05/19 04:22:02;;;;;;;0.98;0.95;;;23.60;40.90;;;;;;5070266;28;20205;-44
2021/05/19 04:24:28;;;;;;;0.80;0.80;;;23.60;40.90;;;;;;5068166;28;20246;-44
2021/05/19 04:26:54;;;;;;;0.95;0.80;;;23.60;41.00;;;;;;5057064;28;20673;-49
2021/05/19 04:29:20;;;;;;;0.70;0.70;;;23.60;40.80;;;;;;5070241;28;20250;-48
2021/05/19 04:31:46;;;;;;;1.02;0.70;;;23.60;41.00;;;;;;5069949;28;20224;-54
2021/05/19 04:34:12;;;;;;;0.70;0.70;;;23.60;41.00;;;;;;5069283;28;20280;-53
2021/05/19 04:36:38;;;;;;;0.80;0.77;;;23.60;41.00;;;;;;5070040;28;20217;-48
2021/05/19 04:39:04;;;;;;;0.70;0.70;;;23.60;41.00;;;;;;5069592;28;20563;-42
2021/05/19 04:41:30;;;;;;;0.75;0.70;;;23.60;40.90;;;;;;5072023;28;20208;-43
2021/05/19 04:43:56;;;;;;;0.70;0.70;;;23.60;40.90;;;;;;5068787;28;20267;-44
2021/05/19 04:46:22;;;;;;;0.80;0.80;;;23.60;40.80;;;;;;5069463;28;20627;-47
2021/05/19 04:48:49;;;;;;;0.70;0.70;;;23.60;40.90;;;;;;5070749;28;20224;-48
2021/05/19 04:51:15;;;;;;;0.85;0.80;;;23.60;40.90;;;;;;5071896;28;20197;-45
2021/05/19 04:53:41;;;;;;;0.70;0.70;;;23.70;41.00;;;;;;5069396;28;20214;-44
2021/05/19 04:56:07;;;;;;;1.10;0.80;;;23.60;41.00;;;;;;5071363;28;20209;-43
2021/05/19 04:58:33;;;;;;;1.17;0.70;;;23.60;41.00;;;;;;5063170;28;20223;-48
2021/05/19 05:00:59;;;;;;;1.40;0.80;;;23.60;41.20;;;;;;5056788;28;20197;-49
2021/05/19 05:03:25;;;;;;;0.70;0.70;;;23.60;41.10;;;;;;5069845;28;20200;-45
2021/05/19 05:05:53;;;;;;;0.70;0.70;;;23.60;41.00;;;;;;5069252;28;20259;-45
2021/05/19 05:08:19;;;;;;;1.50;0.80;;;23.60;41.00;;;;;;5070361;28;20689;-51
2021/05/19 05:10:45;;;;;;;1.10;1.00;;;23.60;41.00;;;;;;5066510;28;20243;-45
2021/05/19 05:13:11;;;;;;;0.70;0.70;;;23.60;41.00;;;;;;5069277;28;20250;-45
2021/05/19 05:15:37;;;;;;;1.65;0.80;;;23.60;41.00;;;;;;5069299;28;20665;-46
2021/05/19 05:18:03;;;;;;;0.73;0.70;;;23.60;41.10;;;;;;5067115;28;20225;-45
2021/05/19 05:20:29;;;;;;;0.93;0.80;;;23.60;41.00;;;;;;5070113;28;20209;-45
2021/05/19 05:22:55;;;;;;;1.15;1.05;;;23.60;41.10;;;;;;5068814;28;20228;-49
2021/05/19 05:25:22;;;;;;;0.85;0.85;;;23.60;41.10;;;;;;5070592;28;20612;-47
2021/05/19 05:27:48;;;;;;;0.95;0.85;;;23.60;41.10;;;;;;5069279;28;20240;-46
2021/05/19 05:30:14;;;;;;;1.00;0.80;;;23.60;41.10;;;;;;5067431;28;20217;-45
2021/05/19 05:32:40;;;;;;;2.67;0.80;;;23.60;41.00;;;;;;5069761;28;20255;-53
2021/05/19 05:35:06;;;;;;;1.63;0.88;;;23.60;41.00;;;;;;5068629;28;20197;-45
2021/05/19 05:37:32;;;;;;;0.70;0.70;;;23.60;41.00;;;;;;5069249;28;20217;-44
2021/05/19 05:39:58;;;;;;;0.93;0.70;;;23.60;41.00;;;;;;5069856;28;20731;-46
2021/05/19 05:42:25;;;;;;;0.80;0.80;;;23.60;41.00;;;;;;5068650;28;20237;-43
2021/05/19 05:44:51;;;;;;;0.82;0.80;;;23.60;41.00;;;;;;5071855;28;20205;-44
2021/05/19 05:47:17;;;;;;;1.33;0.90;;;23.60;41.00;;;;;;5072762;28;20220;-44
2021/05/19 05:49:43;;;;;;;0.80;0.80;;;23.60;41.00;;;;;;5073190;28;20216;-43
2021/05/19 05:52:09;;;;;;;0.70;0.70;;;23.60;41.10;;;;;;5072194;28;20212;-43
2021/05/19 05:54:35;;;;;;;0.70;0.70;;;23.60;41.00;;;;;;5072706;28;20201;-47
2021/05/19 05:57:01;;;;;;;1.10;0.82;;;23.60;41.00;;;;;;5082322;28;20301;-47
2021/05/19 05:59:27;;;;;;;1.15;0.80;;;23.60;41.00;;;;;;5091803;28;20628;-43
2021/05/19 06:01:53;;;;;;;0.80;0.80;;;23.60;41.00;;;;;;5088438;28;20253;-45
2021/05/19 06:04:19;;;;;;;0.73;0.73;;;23.70;40.90;;;;;;5090976;28;20196;-43
2021/05/19 06:06:45;;;;;;;0.68;0.68;;;23.70;41.00;;;;;;5084065;28;20217;-44
2021/05/19 06:09:11;;;;;;;0.80;0.80;;;23.70;41.10;;;;;;5073246;28;20201;-45
2021/05/19 06:11:37;;;;;;;1.08;0.90;;;23.70;41.00;;;;;;5072021;28;20556;-47
2021/05/19 06:14:03;;;;;;;1.35;0.90;;;23.70;41.00;;;;;;5070097;28;20242;-46
2021/05/19 06:16:29;;;;;;;0.70;0.70;;;23.70;41.00;;;;;;5072093;28;20370;-43
2021/05/19 06:18:55;;;;;;;1.15;0.60;;;23.60;41.00;;;;;;5072733;28;20720;-45
2021/05/19 06:21:21;;;;;;;0.60;0.60;;;23.70;41.00;;;;;;5072134;28;20698;-43
2021/05/19 06:23:47;;;;;;;1.20;1.00;;;23.60;40.90;;;;;;5072218;28;20239;-43
2021/05/19 06:26:13;;;;;;;0.77;0.77;;;23.60;41.00;;;;;;5070584;28;20229;-44
2021/05/19 06:28:39;;;;;;;1.20;0.93;;;23.60;41.00;;;;;;5072120;28;20235;-43
2021/05/19 06:31:05;;;;;;;0.75;0.75;;;23.60;41.00;;;;;;5072040;28;20205;-46
2021/05/19 06:33:31;;;;;;;0.75;0.73;;;23.60;40.80;;;;;;5071877;28;20337;-46
2021/05/19 06:35:57;;;;;;;0.70;0.70;;;23.70;40.90;;;;;;5071909;28;20350;-46
2021/05/19 06:38:23;;;;;;;0.70;0.70;;;23.70;41.00;;;;;;5070334;28;20225;-43
2021/05/19 06:40:49;;;;;;;0.63;0.63;;;23.70;41.00;;;;;;5071675;28;20201;-44
2021/05/19 06:43:15;;;;;;;1.20;0.77;;;23.70;41.00;;;;;;5071938;28;20289;-45
2021/05/19 06:45:41;;;;;;;1.08;0.98;;;23.70;40.90;;;;;;5071432;28;20720;-43
2021/05/19 06:48:07;;;;;;;0.70;0.70;;;23.70;41.00;;;;;;5071976;28;20318;-43
2021/05/19 06:50:33;;;;;;;0.80;0.80;;;23.70;41.00;;;;;;5071005;28;20217;-45
2021/05/19 06:52:59;;;;;;;1.70;0.80;;;23.70;40.90;;;;;;5066989;28;20239;-45
2021/05/19 06:55:26;;;;;;;0.95;0.70;;;23.70;41.00;;;;;;5071670;28;20205;-46
2021/05/19 06:57:52;;;;;;;0.85;0.80;;;23.70;41.00;;;;;;5070360;28;20205;-47
2021/05/19 07:00:18;;;;;;;1.58;0.70;;;23.70;40.90;;;;;;5066306;28;20225;-49
2021/05/19 07:02:44;;;;;;;0.85;0.70;;;23.70;41.00;;;;;;5070331;28;20558;-48
2021/05/19 07:05:10;;;;;;;0.80;0.80;;;23.70;41.00;;;;;;5072005;28;20204;-47
2021/05/19 07:07:36;;;;;;;0.80;0.80;;;23.70;40.90;;;;;;5069562;28;20221;-46
2021/05/19 07:10:02;;;;;;;0.63;0.60;;;23.70;41.00;;;;;;5072036;28;20205;-43
2021/05/19 07:12:28;;;;;;;0.73;0.73;;;23.70;40.90;;;;;;5070148;28;20592;-48
2021/05/19 07:14:58;;;;;;;2.38;0.90;;;23.70;41.00;;;;;;5064032;28;20205;-43
2021/05/19 07:17:24;;;;;;;4.80;1.00;;;23.70;41.50;;;;;;5070069;28;20225;-43
2021/05/19 07:19:50;;;;;;;1.58;0.93;;;23.80;42.70;;;;;;5069611;28;20229;-45
2021/05/19 07:22:16;;;;;;;0.75;0.75;;;23.80;42.20;;;;;;5068231;28;20637;-50
2021/05/19 07:24:42;;;;;;;3.05;0.98;;;23.80;42.40;;;;;;5070969;28;20193;-46
2021/05/19 07:27:08;;;;;;;2.40;2.20;;;23.70;42.00;;;;;;5066299;28;20240;-50
2021/05/19 07:29:34;;;;;;;2.83;1.98;;;21.70;38.20;;;;;;5069558;28;20209;-50
2021/05/19 07:32:00;;;;;;;2.72;2.10;;;21.00;40.10;;;;;;5070554;28;20209;-48
2021/05/19 07:34:26;;;;;;;2.13;1.93;;;20.80;39.90;;;;;;5068560;28;20646;-53
2021/05/19 07:36:51;;;;;;;1.93;1.67;;;20.10;40.00;;;;;;5070155;28;20266;-46
2021/05/19 07:39:18;;;;;;;1.53;1.43;;;21.10;39.80;;;;;;5070534;28;20228;-45
2021/05/19 07:41:44;;;;;;;2.93;1.60;;;21.80;39.10;;;;;;5070702;28;20265;-44
2021/05/19 07:44:10;;;;;;;1.30;1.20;;;22.30;38.50;;;;;;5069166;28;20215;-49
2021/05/19 07:46:36;;;;;;;1.47;1.30;;;22.60;38.50;;;;;;5070180;28;20228;-47
2021/05/19 07:49:02;;;;;;;1.27;1.10;;;22.80;38.80;;;;;;5069284;28;20209;-44
2021/05/19 07:51:28;;;;;;;1.60;1.43;;;22.90;38.90;;;;;;5070890;28;20201;-46
2021/05/19 07:53:54;;;;;;;2.25;1.50;;;23.00;39.20;;;;;;5069588;28;20205;-47
2021/05/19 07:56:28;;;;;;;1.67;1.20;;;23.10;39.30;;;;;;5071047;28;20224;-47
2021/05/19 07:59:00;;;;;;;1.10;1.10;;;23.20;39.40;;;;;;5070070;28;20349;-48
2021/05/19 08:01:33;;;;;;;1.08;1.08;;;23.20;40.20;;;;;;5070904;28;20626;-46
2021/05/19 08:03:59;;;;;;;1.20;1.10;;;23.20;39.50;;;;;;5069026;28;20205;-44
2021/05/19 08:06:25;;;;;;;1.63;1.05;;;23.30;39.70;;;;;;5069192;28;20232;-47
2021/05/19 08:08:51;;;;;;;1.30;1.02;;;23.30;39.70;;;;;;5068716;28;20205;-52
2021/05/19 08:11:17;;;;;;;1.10;1.10;;;23.40;40.00;;;;;;5069998;28;20196;-46
2021/05/19 08:13:43;;;;;;;1.25;1.15;;;23.40;39.80;;;;;;5067898;28;20757;-46
2021/05/19 08:16:09;;;;;;;1.60;1.00;;;23.40;40.00;;;;;;5062406;28;20263;-47
2021/05/19 08:18:35;;;;;;;1.30;1.20;;;23.50;40.00;;;;;;5056012;28;20220;-46
2021/05/19 08:21:01;;;;;;;2.57;1.20;;;23.50;39.90;;;;;;5062108;28;20204;-43
2021/05/19 08:23:27;;;;;;;0.85;0.85;;;23.50;40.60;;;;;;5065953;28;20201;-43
2021/05/19 08:25:53;;;;;;;1.45;1.02;;;23.60;40.70;;;;;;5068105;28;20221;-49
2021/05/19 08:28:19;;;;;;;1.58;1.10;;;23.60;40.30;;;;;;5069125;28;20270;-50
2021/05/19 08:30:45;;;;;;;1.40;1.20;;;23.60;41.00;;;;;;5069898;28;20205;-47
2021/05/19 08:33:11;;;;;;;1.10;1.00;;;23.60;40.90;;;;;;5068415;28;20288;-46
2021/05/19 08:35:37;;;;;;;1.35;1.10;;;23.60;40.40;;;;;;5068110;28;20707;-44
2021/05/19 08:38:03;;;;;;;1.20;1.10;;;23.70;40.60;;;;;;5069333;28;20243;-47
2021/05/19 08:40:29;;;;;;;1.08;0.93;;;23.70;40.30;;;;;;5068142;28;20562;-45
2021/05/19 08:42:55;;;;;;;1.52;1.10;;;23.60;40.20;;;;;;5068630;28;20209;-47
2021/05/19 08:45:21;;;;;;;1.15;1.00;;;23.70;40.60;;;;;;5067522;28;20684;-42
2021/05/19 08:47:47;;;;;;;2.42;1.00;;;23.70;41.20;;;;;;5069766;28;20205;-49
2021/05/19 08:50:13;;;;;;;1.75;1.25;;;23.80;41.20;;;;;;5066995;28;20213;-45
2021/05/19 08:52:41;;;;;;;1.00;0.90;;;23.80;41.20;;;;;;5068212;28;20201;-46
2021/05/19 08:55:07;;;;;;;1.00;1.00;;;23.80;41.10;;;;;;5069175;28;20629;-47
2021/05/19 08:57:36;;;;;;;1.52;1.40;;;23.80;40.80;;;;;;5069141;28;20201;-44
2021/05/19 09:00:02;;;;;;;1.90;1.48;;;23.80;41.80;;;;;;5068079;28;20229;-55
2021/05/19 09:02:28;;;;;;;2.50;1.00;;;23.80;41.60;;;;;;5070284;28;20251;-51
2021/05/19 09:04:54;;;;;;;1.25;1.17;;;23.70;41.00;;;;;;5067968;28;20350;-51
2021/05/19 09:07:20;;;;;;;1.10;1.00;;;23.70;41.10;;;;;;5069025;28;20228;-44
2021/05/19 09:09:46;;;;;;;2.17;0.93;;;23.70;41.40;;;;;;5063084;28;20201;-51
2021/05/19 09:12:12;;;;;;;1.77;1.20;;;23.80;41.40;;;;;;5069862;28;20213;-49
2021/05/19 09:14:38;;;;;;;2.83;0.98;;;23.80;41.90;;;;;;5069029;28;20661;-44
2021/05/19 09:17:04;;;;;;;2.63;0.95;;;23.80;41.60;;;;;;5070641;28;20208;-54
2021/05/19 09:19:30;;;;;;;1.38;1.00;;;23.70;41.70;;;;;;5076088;28;20228;-50
2021/05/19 09:21:56;;;;;;;1.27;1.10;;;23.70;41.60;;;;;;5072781;28;20654;-50
2021/05/19 09:24:25;;;;;;;1.23;1.13;;;23.70;41.50;;;;;;5072471;28;20208;-46
2021/05/19 09:26:51;;;;;;;2.63;0.95;;;23.70;41.50;;;;;;5072922;28;20221;-46
2021/05/19 09:29:16;;;;;;;1.05;0.90;;;23.70;41.60;;;;;;5075001;28;20274;-51
2021/05/19 09:31:43;;;;;;;1.20;1.00;;;23.70;41.50;;;;;;5072670;28;20679;-48
2021/05/19 09:34:08;;;;;;;1.30;1.00;;;23.70;41.30;;;;;;5074114;28;20201;-51
2021/05/19 09:36:34;;;;;;;1.10;1.00;;;23.70;41.00;;;;;;5075755;28;20221;-49
2021/05/19 09:39:02;;;;;;;1.95;1.00;;;23.70;40.90;;;;;;5069702;28;20980;-48
2021/05/19 09:41:29;;;;;;;1.00;0.95;;;23.70;41.80;;;;;;5070508;28;20201;-48
2021/05/19 09:43:56;;;;;;;1.35;1.10;;;23.80;41.20;;;;;;5073317;28;20689;-48
2021/05/19 09:46:23;;;;;;;3.15;0.98;;;23.80;40.90;;;;;;5073926;28;20594;-45
2021/05/19 09:48:49;;;;;;;3.70;1.10;;;23.80;40.80;;;;;;5071031;28;20208;-44
2021/05/19 09:51:15;;;;;;;1.83;1.10;;;23.80;40.80;;;;;;5070077;28;20209;-46
2021/05/19 09:53:41;;;;;;;1.08;0.90;;;23.70;40.70;;;;;;5073167;28;20585;-52
2021/05/19 09:56:07;;;;;;;1.70;0.90;;;23.70;40.50;;;;;;5073920;28;20278;-52
2021/05/19 09:58:34;;;;;;;1.38;1.00;;;23.70;40.80;;;;;;5073642;28;20201;-44
2021/05/19 10:01:00;;;;;;;1.38;1.00;;;23.70;40.60;;;;;;5073507;28;20212;-45
2021/05/19 10:03:26;;;;;;;1.33;1.00;;;23.70;40.90;;;;;;5072640;28;20197;-51
2021/05/19 10:05:57;;;;;;;1.60;1.25;;;23.70;41.20;;;;;;5072879;28;20560;-45
2021/05/19 10:08:23;;;;;;;1.10;0.95;;;23.70;40.80;;;;;;5073630;28;20205;-54
2021/05/19 10:10:49;;;;;;;3.45;1.25;;;23.70;41.00;;;;;;5073548;28;20212;-47
2021/05/19 10:13:15;;;;;;;1.48;1.00;;;23.70;41.10;;;;;;5071992;28;20564;-45
2021/05/19 10:15:41;;;;;;;0.98;0.85;;;23.70;41.00;;;;;;5066995;28;20229;-47
2021/05/19 10:18:07;;;;;;;1.00;1.00;;;23.70;41.00;;;;;;5065873;28;20215;-45
2021/05/19 10:20:33;;;;;;;1.27;1.17;;;23.80;41.80;;;;;;5071724;28;20305;-47
2021/05/19 10:22:59;;;;;;;1.77;1.00;;;23.80;42.70;;;;;;5068163;28;20266;-43
2021/05/19 10:25:32;;;;;;;3.42;1.40;;;23.80;42.40;;;;;;5068353;28;20221;-43
2021/05/19 10:28:00;;;;;;;6.35;3.88;;;23.90;42.50;;;;;;5069580;28;20212;-43
2021/05/19 10:30:26;;;;;;;10.75;5.43;;;23.90;42.90;;;;;;5070783;28;20284;-46
2021/05/19 10:32:52;;;;;;;9.93;5.28;;;23.90;43.20;;;;;;5068393;28;20590;-45
2021/05/19 10:35:18;;;;;;;15.60;10.10;;;23.90;44.10;;;;;;5071643;28;20221;-46
2021/05/19 10:37:49;;;;;;;18.38;10.73;;;24.00;44.70;;;;;;5069562;28;20270;-49
2021/05/19 10:40:16;;;;;;;17.10;10.18;;;24.00;44.80;;;;;;5071303;28;20233;-47
2021/05/19 10:42:43;;;;;;;20.55;12.23;;;24.00;45.10;;;;;;5070653;28;20208;-46
2021/05/19 10:45:12;;;;;;;22.30;13.27;;;24.00;45.00;;;;;;5068482;28;20225;-43
2021/05/19 10:47:38;;;;;;;20.73;12.45;;;24.00;45.20;;;;;;5070534;28;20201;-47
2021/05/19 10:50:10;;;;;;;15.73;10.98;;;24.00;45.10;;;;;;5069361;28;20204;-48
2021/05/19 10:52:44;;;;;;;20.70;12.02;;;24.00;45.30;;;;;;5068236;28;20201;-51
2021/05/19 10:57:56;;;;;;;24.55;14.95;;;24.10;45.70;;;;;;5071080;28;20192;-53
2021/05/19 11:00:23;;;;;;;25.23;16.60;;;24.10;46.00;;;;;;5070379;28;20303;-50
2021/05/19 11:02:49;;;;;;;27.52;15.85;;;24.10;45.90;;;;;;5071289;28;20197;-52
2021/05/19 11:05:15;;;;;;;28.30;17.23;;;24.10;46.00;;;;;;5066874;28;20267;-49
2021/05/19 11:07:41;;;;;;;24.17;16.23;;;24.10;46.00;;;;;;5069970;28;20259;-55
2021/05/19 11:10:07;;;;;;;27.30;16.65;;;24.10;46.10;;;;;;5071325;28;20213;-44
2021/05/19 11:12:36;;;;;;;25.17;16.20;;;24.10;46.20;;;;;;5071537;28;20212;-47
2021/05/19 11:15:05;;;;;;;26.83;16.17;;;24.10;46.30;;;;;;5069581;28;20750;-51
2021/05/19 11:17:36;;;;;;;26.33;17.27;;;24.10;46.30;;;;;;5087582;28;20267;-46
2021/05/19 11:20:02;;;;;;;30.02;20.35;;;24.20;46.40;;;;;;5070561;28;20236;-51
2021/05/19 11:22:28;;;;;;;33.97;20.33;;;24.20;46.30;;;;;;5067366;28;20593;-45
2021/05/19 11:24:54;;;;;;;35.88;20.13;;;24.20;46.30;;;;;;5074581;28;20238;-51
2021/05/19 11:27:20;;;;;;;29.50;20.27;;;24.20;46.50;;;;;;5074943;28;20243;-46
2021/05/19 11:29:46;;;;;;;32.42;20.23;;;24.20;46.50;;;;;;5067811;28;20205;-45
2021/05/19 11:32:12;;;;;;;41.08;21.30;;;24.20;46.50;;;;;;5070973;28;20209;-50
2021/05/19 11:34:38;;;;;;;34.50;21.08;;;24.20;46.40;;;;;;5057226;28;20218;-50
2021/05/19 11:37:04;;;;;;;31.50;20.40;;;24.20;46.60;;;;;;5071417;28;20224;-50
2021/05/19 11:39:32;;;;;;;35.55;21.33;;;24.10;46.30;;;;;;5069391;28;20236;-44
2021/05/19 11:41:58;;;;;;;32.72;20.40;;;24.20;46.30;;;;;;5073181;28;20209;-48
2021/05/19 11:44:24;;;;;;;33.55;20.25;;;24.10;46.30;;;;;;5068224;28;20237;-50
2021/05/19 11:46:50;;;;;;;31.13;19.83;;;24.10;46.40;;;;;;5070081;28;20543;-44
2021/05/19 11:49:16;;;;;;;29.23;19.73;;;24.10;46.50;;;;;;5070919;28;20281;-52
2021/05/19 11:51:42;;;;;;;33.08;19.83;;;24.10;46.50;;;;;;5068339;28;20201;-44
2021/05/19 11:54:08;;;;;;;33.33;20.17;;;24.10;46.50;;;;;;5066701;28;20217;-48
2021/05/19 11:56:34;;;;;;;31.95;18.88;;;24.10;46.70;;;;;;5050688;28;20293;-48
2021/05/19 11:59:00;;;;;;;30.73;18.38;;;24.10;46.80;;;;;;5050261;28;20232;-48
2021/05/19 12:01:27;;;;;;;27.58;19.05;;;24.10;46.90;;;;;;5066654;28;20618;-45
2021/05/19 12:03:53;;;;;;;30.10;18.98;;;24.10;47.00;;;;;;5068769;28;20239;-51
2021/05/19 12:06:21;;;;;;;28.50;16.98;;;24.10;47.00;;;;;;5065039;28;20205;-46
2021/05/19 12:08:47;;;;;;;28.27;18.45;;;24.10;47.00;;;;;;5073099;28;20282;-44
2021/05/19 12:11:14;;;;;;;25.65;14.70;;;24.10;46.80;;;;;;5070465;28;20212;-52
2021/05/19 12:13:40;;;;;;;10.70;8.35;;;24.00;44.50;;;;;;5070172;28;20220;-52
2021/05/19 12:16:06;;;;;;;13.88;8.43;;;23.80;42.40;;;;;;5084791;28;20648;-44
2021/05/19 12:18:32;;;;;;;18.92;11.75;;;23.80;42.00;;;;;;5080320;28;20197;-48
2021/05/19 12:20:58;;;;;;;16.25;10.05;;;23.80;43.60;;;;;;5072718;28;20646;-50
2021/05/19 12:23:24;;;;;;;21.05;11.40;;;23.90;43.00;;;;;;5067394;28;20205;-47
2021/05/19 12:25:55;;;;;;;17.52;10.35;;;23.90;43.50;;;;;;5069339;28;20229;-43
2021/05/19 12:28:22;;;;;;;18.88;10.30;;;23.90;43.30;;;;;;5067150;28;20208;-42
2021/05/19 12:30:48;;;;;;;17.50;10.02;;;23.90;43.50;;;;;;5061907;28;20255;-51
2021/05/19 12:33:16;;;;;;;15.27;9.68;;;23.90;43.40;;;;;;5070262;28;20201;-44
2021/05/19 12:35:42;;;;;;;17.55;9.57;;;24.00;43.20;;;;;;5068279;28;20235;-53
2021/05/19 12:38:08;;;;;;;9.98;6.35;;;24.00;43.10;;;;;;5068290;28;20201;-56
2021/05/19 12:40:35;;;;;;;8.10;5.93;;;23.80;39.80;;;;;;5063020;28;20217;-44